Time;durP1;ratioP1;P1;durP2;ratioP2;P2;SDS_P1;SDS_P2;PMS_P1;PMS_P2;Temp;Humidity;BMP_temperature;BMP_pressure;BME280_temperature;BME280_humidity;BME280_pressure;Samples;Min_cycle;Max_cycle;Signal;HPM_P1;HPM_P2
2023/09/06 00:01:21;;;;;;;9.10;6.60;;;;;;;17.37;100.00;102009.81;7372138;19;20825;-35
2023/09/06 00:03:51;;;;;;;10.80;6.60;;;;;;;17.35;100.00;102009.81;7396079;19;20791;-34
2023/09/06 00:06:21;;;;;;;10.17;6.37;;;;;;;17.31;100.00;102007.91;7370774;19;21023;-35
2023/09/06 00:08:50;;;;;;;10.80;6.53;;;;;;;17.26;100.00;102015.59;7394454;19;20514;-36
2023/09/06 00:11:20;;;;;;;9.37;7.10;;;;;;;17.18;100.00;102014.41;7372239;19;21093;-34
2023/09/06 00:13:49;;;;;;;9.87;7.27;;;;;;;17.14;100.00;102010.81;7395533;19;20407;-35
2023/09/06 00:16:22;;;;;;;13.50;7.20;;;;;;;17.12;100.00;102007.28;7369805;19;20510;-34
2023/09/06 00:18:52;;;;;;;12.03;7.50;;;;;;;17.08;100.00;102005.41;7394091;19;20447;-35
2023/09/06 00:21:22;;;;;;;9.80;7.20;;;;;;;17.11;100.00;102010.72;7373541;19;20962;-35
2023/09/06 00:23:51;;;;;;;11.77;7.80;;;;;;;17.08;100.00;102013.22;7395291;19;20404;-34
2023/09/06 00:26:21;;;;;;;13.60;7.83;;;;;;;17.11;100.00;102010.72;7370836;19;20781;-34
2023/09/06 00:28:50;;;;;;;11.63;8.30;;;;;;;17.13;100.00;102014.28;7396231;19;20443;-35
2023/09/06 00:31:22;;;;;;;11.67;7.73;;;;;;;17.06;100.00;102014.91;7369817;19;21349;-35
2023/09/06 00:33:52;;;;;;;11.33;7.40;;;;;;;16.97;100.00;102010.22;7395326;19;20419;-37
2023/09/06 00:36:22;;;;;;;11.87;8.00;;;;;;;16.93;100.00;102002.22;7371951;19;20891;-36
2023/09/06 00:38:51;;;;;;;14.13;7.73;;;;;;;16.82;100.00;102005.34;7394694;19;20459;-38
2023/09/06 00:41:21;;;;;;;10.35;8.45;;;;;;;16.83;100.00;102004.50;7370113;19;20864;-34
2023/09/06 00:43:50;;;;;;;10.80;8.10;;;;;;;16.81;100.00;102000.97;7395815;19;20139;-35
2023/09/06 00:46:23;;;;;;;10.63;7.47;;;;;;;16.80;100.00;101999.19;7370558;19;20435;-35
2023/09/06 00:48:54;;;;;;;10.80;7.97;;;;;;;16.79;100.00;101997.44;7391250;19;20837;-34
2023/09/06 00:51:25;;;;;;;19.43;9.50;;;;;;;16.78;100.00;101990.44;7369001;19;20419;-39
2023/09/06 00:54:00;;;;;;;13.23;8.50;;;;;;;16.78;100.00;101994.75;7393993;19;20403;-35
2023/09/06 00:56:29;;;;;;;10.60;7.97;;;;;;;16.81;100.00;101998.34;7368930;19;20425;-38
2023/09/06 00:59:01;;;;;;;10.70;7.90;;;;;;;16.78;100.00;101995.66;7392054;19;20435;-35
2023/09/06 01:01:33;;;;;;;10.33;7.63;;;;;;;16.73;100.00;101992.00;7368316;19;20407;-36
2023/09/06 01:04:03;;;;;;;11.07;8.00;;;;;;;16.63;100.00;101990.78;7393301;19;20479;-34
2023/09/06 01:06:35;;;;;;;10.67;7.33;;;;;;;16.53;100.00;101984.34;7367153;19;20885;-35
2023/09/06 01:09:07;;;;;;;11.27;7.40;;;;;;;16.56;100.00;101971.41;7391242;19;20779;-34
2023/09/06 01:11:39;;;;;;;11.37;7.90;;;;;;;16.57;100.00;101975.78;7368269;19;20443;-35
2023/09/06 01:14:09;;;;;;;10.50;7.70;;;;;;;16.56;100.00;101979.22;7397189;19;20400;-35
2023/09/06 01:16:42;;;;;;;11.37;7.60;;;;;;;16.59;100.00;101968.94;7367923;19;20415;-35
2023/09/06 01:19:15;;;;;;;9.43;7.30;;;;;;;16.53;100.00;101965.22;7387978;19;20408;-35
2023/09/06 01:21:50;;;;;;;13.70;7.77;;;;;;;16.54;100.00;101959.16;7368304;19;20462;-34
2023/09/06 01:24:24;;;;;;;12.23;9.00;;;;;;;16.47;100.00;101968.50;7393222;19;20391;-34
2023/09/06 01:26:55;;;;;;;11.87;7.67;;;;;;;16.44;100.00;101963.16;7367668;19;20407;-35
2023/09/06 01:29:24;;;;;;;13.00;8.10;;;;;;;16.40;100.00;101961.28;7388850;19;20462;-34
2023/09/06 01:31:54;;;;;;;10.77;7.47;;;;;;;16.37;100.00;101956.84;7371319;19;20487;-35
2023/09/06 01:34:24;;;;;;;9.10;7.07;;;;;;;16.31;100.00;101949.69;7395719;19;20428;-35
2023/09/06 01:36:53;;;;;;;10.87;7.70;;;;;;;16.27;100.00;101945.19;7369034;19;20443;-34
2023/09/06 01:39:26;;;;;;;9.60;7.00;;;;;;;16.29;100.00;101943.53;7394588;19;20819;-35
2023/09/06 01:41:56;;;;;;;10.00;7.20;;;;;;;16.23;100.00;101938.09;7371013;19;20435;-35
2023/09/06 01:44:26;;;;;;;9.10;6.90;;;;;;;16.18;100.00;101929.22;7395248;19;20412;-34
2023/09/06 01:46:56;;;;;;;10.40;7.30;;;;;;;16.29;100.00;101933.13;7370035;19;20430;-35
2023/09/06 01:49:28;;;;;;;11.20;7.50;;;;;;;16.29;100.00;101930.50;7393803;19;20455;-34
2023/09/06 01:51:59;;;;;;;13.17;7.60;;;;;;;16.28;100.00;101927.84;7370489;19;20832;-35
2023/09/06 01:54:32;;;;;;;8.33;6.80;;;;;;;16.23;100.00;101918.97;7396936;19;20411;-35
2023/09/06 01:57:02;;;;;;;12.30;8.30;;;;;;;16.17;100.00;101923.16;7370800;19;20431;-35
2023/09/06 01:59:31;;;;;;;10.07;7.17;;;;;;;16.12;100.00;101921.19;7393625;19;20514;-35
2023/09/06 02:02:01;;;;;;;10.80;7.80;;;;;;;16.07;100.00;101913.22;7369495;19;20427;-35
2023/09/06 02:04:30;;;;;;;10.07;7.47;;;;;;;16.11;100.00;101919.41;7394507;19;20423;-35
2023/09/06 02:07:02;;;;;;;13.60;7.67;;;;;;;16.10;100.00;101915.91;7370331;19;20443;-36
2023/09/06 02:09:34;;;;;;;12.53;8.47;;;;;;;16.16;100.00;101917.88;7393205;19;20891;-35
2023/09/06 02:12:05;;;;;;;9.77;7.50;;;;;;;16.09;100.00;101914.16;7370519;19;20862;-35
2023/09/06 02:14:35;;;;;;;9.90;7.23;;;;;;;16.08;100.00;101917.59;7393413;19;20403;-37
2023/09/06 02:17:04;;;;;;;12.00;7.97;;;;;;;16.01;100.00;101921.66;7370235;19;20427;-36
2023/09/06 02:19:34;;;;;;;11.43;8.50;;;;;;;15.99;100.00;101922.47;7393183;19;20451;-35
2023/09/06 02:22:04;;;;;;;12.23;7.80;;;;;;;15.93;100.00;101928.28;7370136;19;20526;-34
2023/09/06 02:24:37;;;;;;;10.40;7.90;;;;;;;15.83;100.00;101927.03;7392878;19;20412;-35
2023/09/06 02:27:09;;;;;;;11.10;7.73;;;;;;;15.84;100.00;101922.72;7369095;19;20998;-36
2023/09/06 02:29:39;;;;;;;9.07;7.13;;;;;;;15.82;100.00;101924.34;7392635;19;20435;-35
2023/09/06 02:32:08;;;;;;;24.40;7.00;;;;;;;15.78;100.00;101932.06;7364829;19;20438;-35
2023/09/06 02:34:38;;;;;;;11.80;7.30;;;;;;;15.74;100.00;101932.75;7389295;19;20431;-35
2023/09/06 02:37:08;;;;;;;10.67;7.20;;;;;;;15.71;100.00;101936.94;7365437;19;20809;-36
2023/09/06 02:39:40;;;;;;;10.03;6.50;;;;;;;15.73;100.00;101941.38;7393173;19;20431;-35
2023/09/06 02:42:10;;;;;;;9.60;6.90;;;;;;;15.70;100.00;101941.28;7366255;19;20411;-35
2023/09/06 02:44:39;;;;;;;10.40;7.70;;;;;;;15.74;100.00;101937.97;7391375;19;20383;-36
2023/09/06 02:47:11;;;;;;;10.27;7.53;;;;;;;15.79;100.00;101936.44;7365271;19;20419;-35
2023/09/06 02:49:42;;;;;;;9.50;7.00;;;;;;;15.74;100.00;101942.28;7389036;19;20499;-36
2023/09/06 02:52:20;;;;;;;9.17;7.47;;;;;;;15.72;100.00;101944.81;7365595;19;20420;-34
2023/09/06 02:54:54;;;;;;;13.20;9.73;;;;;;;15.81;100.00;101941.69;7389389;19;20926;-35
2023/09/06 02:57:24;;;;;;;11.67;8.13;;;;;;;15.70;100.00;101943.00;7365542;19;20444;-35
2023/09/06 02:59:54;;;;;;;58.10;34.00;;;;;;;15.62;100.00;101938.38;7393615;19;20442;-35
2023/09/06 03:02:24;;;;;;;26.73;16.17;;;;;;;15.55;100.00;101938.97;7365571;19;20406;-36
2023/09/06 03:05:03;;;;;;;28.70;17.57;;;;;;;15.56;100.00;101942.44;7390213;19;20407;-36
2023/09/06 03:07:34;;;;;;;71.67;42.60;;;;;;;15.65;100.00;101945.41;7366738;19;20421;-35
2023/09/06 03:10:07;;;;;;;30.67;18.60;;;;;;;15.72;100.00;101952.63;7381082;19;20415;-35
2023/09/06 03:12:41;;;;;;;37.40;21.70;;;;;;;15.79;100.00;101946.84;7388436;19;20402;-34
2023/09/06 03:15:13;;;;;;;30.73;20.17;;;;;;;15.93;100.00;101943.91;7364572;19;21291;-35
2023/09/06 03:17:46;;;;;;;19.53;13.00;;;;;;;15.95;100.00;101955.28;7385827;19;20930;-35
2023/09/06 03:20:31;;;;;;;15.03;10.10;;;;;;;15.79;100.00;101958.94;7364713;19;20455;-35
2023/09/06 03:23:02;;;;;;;26.27;16.60;;;;;;;15.87;100.00;101969.66;7386867;19;20403;-35
2023/09/06 03:25:40;;;;;;;22.50;15.63;;;;;;;15.84;100.00;101974.75;7366445;19;20403;-34
2023/09/06 03:28:10;;;;;;;18.67;11.80;;;;;;;15.93;100.00;101982.94;7387528;19;20986;-34
2023/09/06 03:30:39;;;;;;;14.40;9.00;;;;;;;15.73;100.00;101980.41;7364513;19;20391;-35
2023/09/06 03:33:09;;;;;;;13.67;8.97;;;;;;;15.66;100.00;101991.41;7385600;19;21262;-37
2023/09/06 03:35:39;;;;;;;17.83;12.70;;;;;;;15.77;100.00;101992.72;7363606;19;20447;-35
2023/09/06 03:38:11;;;;;;;16.90;10.17;;;;;;;15.78;100.00;101994.50;7385494;19;20435;-34
2023/09/06 03:40:43;;;;;;;14.90;10.17;;;;;;;15.76;100.00;101995.25;7364859;19;20440;-35
2023/09/06 03:43:19;;;;;;;14.23;9.83;;;;;;;15.53;100.00;102005.63;7389709;19;20944;-36
2023/09/06 03:45:51;;;;;;;12.50;9.07;;;;;;;15.36;100.00;101999.72;7371312;19;20405;-35
2023/09/06 03:48:23;;;;;;;16.50;9.67;;;;;;;15.44;100.00;102002.66;7392431;19;20434;-35
2023/09/06 03:50:56;;;;;;;14.20;10.70;;;;;;;15.36;100.00;101995.41;7370884;19;20407;-35
2023/09/06 03:53:26;;;;;;;81.50;48.80;;;;;;;15.38;100.00;101992.84;7395589;19;20778;-35
2023/09/06 03:56:00;;;;;;;20.50;11.70;;;;;;;15.45;100.00;101987.13;7372234;19;20502;-35
2023/09/06 03:58:30;;;;;;;11.87;10.00;;;;;;;15.21;100.00;101992.16;7392531;19;20450;-37
2023/09/06 04:01:00;;;;;;;25.07;17.73;;;;;;;15.29;100.00;101989.88;7369799;19;20962;-35
2023/09/06 04:03:30;;;;;;;23.40;16.17;;;;;;;15.32;100.00;101977.00;7393477;19;20807;-36
2023/09/06 04:06:03;;;;;;;21.60;15.50;;;;;;;15.36;100.00;101976.31;7370991;19;20449;-35
2023/09/06 04:08:33;;;;;;;18.67;14.17;;;;;;;15.38;100.00;101966.84;7393753;19;21320;-36
2023/09/06 04:11:06;;;;;;;17.07;12.90;;;;;;;15.33;100.00;101971.00;7369919;19;20435;-40
2023/09/06 04:13:35;;;;;;;19.40;12.37;;;;;;;15.27;100.00;101970.75;7395494;19;20455;-34
2023/09/06 04:16:05;;;;;;;13.43;10.20;;;;;;;15.20;100.00;101970.50;7370914;19;20961;-35
2023/09/06 04:18:35;;;;;;;16.00;11.77;;;;;;;15.16;100.00;101976.38;7393636;19;20491;-35
2023/09/06 04:21:08;;;;;;;20.07;13.10;;;;;;;15.10;100.00;101973.50;7370023;19;20451;-35
2023/09/06 04:23:40;;;;;;;14.40;10.40;;;;;;;15.08;100.00;101976.03;7393024;19;20388;-37
2023/09/06 04:26:12;;;;;;;20.10;13.87;;;;;;;15.04;100.00;101978.44;7369841;19;20403;-35
2023/09/06 04:28:41;;;;;;;15.90;12.40;;;;;;;15.04;100.00;101975.84;7391841;19;20841;-35
2023/09/06 04:31:11;;;;;;;17.47;12.67;;;;;;;15.04;100.00;101968.97;7369731;19;20399;-37
2023/09/06 04:33:41;;;;;;;19.93;13.63;;;;;;;15.03;100.00;101969.75;7394818;19;20941;-36
2023/09/06 04:36:11;;;;;;;18.97;13.93;;;;;;;15.01;100.00;101967.94;7369528;19;20506;-34
2023/09/06 04:38:40;;;;;;;17.20;12.87;;;;;;;14.92;100.00;101966.69;7392442;19;20942;-35
2023/09/06 04:41:14;;;;;;;16.80;12.60;;;;;;;14.88;100.00;101975.22;7370126;19;20427;-35
2023/09/06 04:43:44;;;;;;;20.53;15.23;;;;;;;14.94;100.00;101972.88;7395676;19;20431;-35
2023/09/06 04:46:14;;;;;;;22.60;14.47;;;;;;;14.98;100.00;101971.28;7369441;19;20439;-35
2023/09/06 04:48:46;;;;;;;18.20;14.00;;;;;;;14.99;100.00;101973.94;7392148;19;21415;-36
2023/09/06 04:51:15;;;;;;;21.60;15.00;;;;;;;14.98;100.00;101972.16;7369547;19;20423;-35
2023/09/06 04:53:45;;;;;;;20.77;15.43;;;;;;;15.04;100.00;101975.84;7393916;19;20392;-35
2023/09/06 04:56:18;;;;;;;28.80;20.10;;;;;;;15.10;100.00;101973.50;7370295;19;20423;-36
2023/09/06 04:58:48;;;;;;;26.00;18.73;;;;;;;15.25;100.00;101971.56;7392530;19;20420;-35
2023/09/06 05:01:19;;;;;;;80.17;50.93;;;;;;;15.07;100.00;101976.00;7371386;19;20419;-35
2023/09/06 05:03:49;;;;;;;24.20;17.47;;;;;;;15.13;100.00;101973.66;7392114;19;20394;-34
2023/09/06 05:06:20;;;;;;;46.20;28.90;;;;;;;15.10;100.00;101978.72;7365263;19;20821;-35
2023/09/06 05:08:49;;;;;;;56.93;34.90;;;;;;;15.14;100.00;101980.63;7388570;19;21046;-35
2023/09/06 05:11:21;;;;;;;44.47;30.20;;;;;;;15.18;100.00;101990.31;7371973;19;20429;-33
2023/09/06 05:13:51;;;;;;;42.53;27.70;;;;;;;15.07;100.00;101992.47;7396495;19;20411;-34
2023/09/06 05:16:21;;;;;;;29.63;20.47;;;;;;;15.09;100.00;101996.00;7372530;19;20440;-37
2023/09/06 05:18:50;;;;;;;36.97;24.47;;;;;;;15.31;100.00;101993.44;7393160;19;20514;-35
2023/09/06 05:21:20;;;;;;;24.00;15.10;;;;;;;15.22;100.00;102001.72;7372439;19;20423;-36
2023/09/06 05:23:49;;;;;;;18.17;12.40;;;;;;;15.12;100.00;102009.16;7393972;19;20400;-35
2023/09/06 05:26:22;;;;;;;21.13;15.20;;;;;;;15.12;100.00;102008.25;7371646;19;20490;-35
2023/09/06 05:28:51;;;;;;;25.33;16.70;;;;;;;15.13;100.00;102020.44;7393308;19;20443;-34
2023/09/06 05:31:21;;;;;;;23.53;14.80;;;;;;;15.12;100.00;102029.94;7372170;19;20435;-35
2023/09/06 05:33:50;;;;;;;23.83;14.10;;;;;;;15.08;100.00;102021.94;7395721;19;20410;-34
2023/09/06 05:36:20;;;;;;;16.77;12.77;;;;;;;15.08;100.00;102027.16;7373703;19;20451;-34
2023/09/06 05:38:50;;;;;;;21.90;15.37;;;;;;;15.14;100.00;102024.81;7393581;19;20515;-34
2023/09/06 05:41:22;;;;;;;28.27;15.97;;;;;;;15.18;100.00;102016.31;7371392;19;20495;-34
2023/09/06 05:43:51;;;;;;;17.63;13.17;;;;;;;15.21;100.00;102023.34;7394430;19;20403;-34
2023/09/06 05:46:21;;;;;;;18.57;12.70;;;;;;;15.28;100.00;102019.31;7371797;19;20451;-34
2023/09/06 05:49:02;;;;;;;23.07;13.17;;;;;;;15.34;100.00;102024.78;7393033;19;20443;-35
2023/09/06 05:51:31;;;;;;;17.20;12.60;;;;;;;15.35;100.00;102017.06;7371604;19;20426;-34
2023/09/06 05:54:01;;;;;;;20.67;12.97;;;;;;;15.44;100.00;102016.53;7393236;19;20404;-36
2023/09/06 05:56:33;;;;;;;15.37;11.20;;;;;;;15.50;100.00;102024.56;7371454;19;20808;-33
2023/09/06 05:59:03;;;;;;;19.83;13.03;;;;;;;15.58;100.00;102019.69;7392610;19;20443;-34
2023/09/06 06:01:33;;;;;;;16.33;12.00;;;;;;;15.65;100.00;102015.66;7370391;19;20419;-35
2023/09/06 06:04:03;;;;;;;17.00;12.60;;;;;;;15.70;100.00;102016.72;7393241;19;20946;-34
2023/09/06 06:06:34;;;;;;;17.93;11.27;;;;;;;15.76;100.00;102014.38;7368266;19;20997;-34
2023/09/06 06:09:04;;;;;;;15.80;11.10;;;;;;;15.85;100.00;102028.56;7393102;19;20435;-33
2023/09/06 06:11:37;;;;;;;18.73;12.50;;;;;;;15.93;100.00;102027.19;7369083;19;20431;-33
2023/09/06 06:14:07;;;;;;;18.40;11.77;;;;;;;16.02;100.00;102030.19;7393536;19;20827;-33
2023/09/06 06:16:40;;;;;;;12.20;9.27;;;;;;;16.08;100.00;102031.22;7368567;19;20423;-33
2023/09/06 06:19:13;;;;;;;21.13;10.47;;;;;;;16.13;100.00;102033.19;7393065;19;20463;-34
2023/09/06 06:21:43;;;;;;;16.93;9.63;;;;;;;16.23;100.00;102037.03;7368382;19;20443;-34
2023/09/06 06:24:14;;;;;;;16.53;9.20;;;;;;;16.29;100.00;102037.28;7393150;19;20491;-34
2023/09/06 06:26:49;;;;;;;12.00;8.70;;;;;;;16.38;100.00;102048.88;7369592;19;20462;-34
2023/09/06 06:29:18;;;;;;;8.70;7.80;;;;;;;16.44;100.00;102052.59;7392932;19;20864;-36
2023/09/06 06:31:48;;;;;;;9.23;7.70;;;;;;;16.53;100.00;102052.06;7368910;19;20452;-34
2023/09/06 06:34:18;;;;;;;10.53;7.50;;;;;;;16.60;100.00;102053.16;7392882;19;20451;-37
2023/09/06 06:36:48;;;;;;;12.60;7.60;;;;;;;16.68;100.00;102063.88;7368545;19;20486;-35
2023/09/06 06:39:17;;;;;;;11.63;8.87;;;;;;;16.78;100.00;102059.91;7391875;19;20535;-34
2023/09/06 06:41:50;;;;;;;13.73;9.63;;;;;;;16.86;100.00;102067.16;7367991;19;20443;-34
2023/09/06 06:44:20;;;;;;;10.10;6.70;;;;;;;16.93;100.00;102072.63;7395147;19;20827;-34
2023/09/06 06:46:50;;;;;;;10.93;7.47;;;;;;;17.02;100.00;102067.75;7368885;19;20427;-33
2023/09/06 06:49:21;;;;;;;11.10;6.50;;;;;;;17.10;100.00;102081.97;7392681;19;20450;-33
2023/09/06 06:51:51;;;;;;;9.40;5.83;;;;;;;17.21;100.00;102089.25;7368725;19;20506;-34
2023/09/06 06:54:21;;;;;;;7.50;5.67;;;;;;;17.29;100.00;102103.50;7391966;19;20423;-34
2023/09/06 06:56:53;;;;;;;9.30;6.57;;;;;;;17.39;100.00;102105.56;7368577;19;20983;-34
2023/09/06 06:59:23;;;;;;;8.00;6.00;;;;;;;17.48;100.00;102114.56;7392209;19;20464;-34
2023/09/06 07:01:54;;;;;;;8.73;5.70;;;;;;;17.58;100.00;102121.84;7368810;19;20417;-34
2023/09/06 07:04:24;;;;;;;10.53;6.20;;;;;;;17.65;100.00;102123.84;7393150;19;20404;-34
2023/09/06 07:06:54;;;;;;;8.93;5.13;;;;;;;17.77;100.00;102132.91;7368306;19;20423;-35
2023/09/06 07:09:23;;;;;;;7.87;4.97;;;;;;;17.88;100.00;102147.22;7391588;19;20511;-34
2023/09/06 07:11:55;;;;;;;9.37;5.00;;;;;;;17.97;100.00;102153.59;7367213;19;20431;-34
2023/09/06 07:14:25;;;;;;;11.20;5.40;;;;;;;18.04;100.00;102155.56;7393121;19;20407;-35
2023/09/06 07:16:55;;;;;;;6.77;4.90;;;;;;;18.13;100.00;102168.97;7368452;19;20469;-34
2023/09/06 07:19:25;;;;;;;11.13;6.27;;;;;;;18.33;100.00;102166.13;7398503;19;20476;-34
2023/09/06 07:21:55;;;;;;;9.40;6.03;;;;;;;18.45;100.00;102176.94;7374271;19;20990;-33
2023/09/06 07:24:25;;;;;;;5.17;4.50;;;;;;;18.61;100.00;102182.69;7398245;19;20403;-34
2023/09/06 07:26:57;;;;;;;11.70;6.40;;;;;;;18.66;100.00;102198.50;7374449;19;20442;-34
2023/09/06 07:29:26;;;;;;;7.20;4.37;;;;;;;18.73;100.00;102201.31;7398305;19;20461;-33
2023/09/06 07:31:56;;;;;;;12.03;4.83;;;;;;;18.75;100.00;102199.66;7374626;19;20427;-34
2023/09/06 07:34:26;;;;;;;9.10;4.80;;;;;;;18.90;100.00;102208.81;7399214;19;20842;-34
2023/09/06 07:36:56;;;;;;;16.93;6.03;;;;;;;19.06;100.00;102217.16;7374769;19;20427;-35
2023/09/06 07:39:25;;;;;;;6.70;4.03;;;;;;;19.16;100.00;102221.81;7397905;19;20554;-34
2023/09/06 07:41:57;;;;;;;10.37;4.97;;;;;;;19.30;100.00;102228.31;7371888;19;20446;-34
2023/09/06 07:44:29;;;;;;;25.57;12.03;;;;;;;19.36;100.00;102242.41;7397679;19;20479;-34
2023/09/06 07:46:59;;;;;;;7.17;4.63;;;;;;;19.45;100.00;102253.16;7374157;19;20437;-35
2023/09/06 07:49:30;;;;;;;11.30;4.10;;;;;;;19.52;100.00;102248.97;7398185;19;20466;-34
2023/09/06 07:52:04;;;;;;;4.67;3.57;;;;;;;19.63;100.00;102257.16;7373715;19;20427;-34
2023/09/06 07:54:34;;;;;;;8.30;5.80;;;;;;;19.74;100.00;102270.53;7395821;19;20482;-35
2023/09/06 07:57:07;;;;;;;8.43;5.57;;;;;;;19.83;100.00;102273.38;7371539;19;20427;-33
2023/09/06 07:59:36;;;;;;;5.10;4.20;;;;;;;19.96;100.00;102282.50;7395664;19;20853;-33
2023/09/06 08:02:06;;;;;;;8.47;4.27;;;;;;;20.14;100.00;102286.47;7372398;19;20435;-34
2023/09/06 08:04:35;;;;;;;9.43;4.93;;;;;;;20.18;100.00;102293.56;7398263;19;20411;-34
2023/09/06 08:07:06;;;;;;;4.87;3.60;;;;;;;20.43;100.00;102308.19;7373331;19;20430;-33
2023/09/06 08:09:37;;;;;;;5.37;3.90;;;;;;;20.67;100.00;102330.63;7396040;19;20523;-34
2023/09/06 08:12:10;;;;;;;7.30;3.83;;;;;;;20.80;100.00;102342.28;7373702;19;20431;-34
2023/09/06 08:14:41;;;;;;;8.57;3.97;;;;;;;20.92;100.00;102370.59;7396253;19;21094;-35
2023/09/06 08:17:12;;;;;;;6.60;3.57;;;;;;;21.02;100.00;102383.06;7373355;19;20423;-34
2023/09/06 08:19:42;;;;;;;18.60;9.30;;;;;;;21.02;100.00;102395.31;7395674;19;20451;-34
2023/09/06 08:22:12;;;;;;;15.83;8.13;;;;;;;21.03;100.00;102391.84;7371387;19;20431;-35
2023/09/06 08:24:41;;;;;;;24.23;11.70;;;;;;;21.09;100.00;102397.22;7395408;19;20931;-34
2023/09/06 08:27:14;;;;;;;17.37;8.80;;;;;;;21.18;100.00;102399.19;7372199;19;20431;-35
2023/09/06 08:29:44;;;;;;;8.17;3.10;;;;;;;21.35;100.00;102420.56;7394306;19;20443;-35
2023/09/06 08:32:13;;;;;;;14.07;6.90;;;;;;;21.42;100.00;102432.97;7370243;19;20423;-35
2023/09/06 08:34:43;;;;;;;26.03;14.23;;;;;;;21.48;100.00;102441.84;7395735;19;20385;-35
2023/09/06 08:37:13;;;;;;;34.83;17.87;;;;;;;21.65;100.00;102450.13;7372230;19;20514;-33
2023/09/06 08:39:43;;;;;;;18.00;6.67;;;;;;;21.83;100.00;102447.03;7394588;19;20458;-34
2023/09/06 08:42:16;;;;;;;21.97;12.00;;;;;;;21.89;100.00;102454.16;7371880;19;20466;-35
2023/09/06 08:44:49;;;;;;;8.23;3.30;;;;;;;21.93;100.00;102454.25;7395477;19;20415;-34
2023/09/06 08:47:21;;;;;;;20.90;10.23;;;;;;;22.00;100.00;102457.91;7372257;19;20518;-34
2023/09/06 08:49:50;;;;;;;22.57;10.20;;;;;;;22.06;100.00;102444.00;7395362;19;20468;-34
2023/09/06 08:52:20;;;;;;;10.93;5.90;;;;;;;22.13;100.00;102438.00;7372971;19;20468;-34
2023/09/06 08:54:50;;;;;;;39.93;20.53;;;;;;;22.18;100.00;102422.34;7395133;19;20784;-34
2023/09/06 08:57:23;;;;;;;46.90;25.47;;;;;;;22.30;100.00;102421.72;7372141;19;21003;-34
2023/09/06 08:59:53;;;;;;;20.83;11.67;;;;;;;22.36;100.00;102406.91;7395060;19;20503;-34
2023/09/06 09:02:23;;;;;;;18.43;9.90;;;;;;;22.48;100.00;102402.75;7370452;19;20967;-35
2023/09/06 09:04:52;;;;;;;42.83;22.90;;;;;;;22.59;100.00;102395.06;7394309;19;20436;-33
2023/09/06 09:07:34;;;;;;;35.03;19.43;;;;;;;22.68;100.00;102379.47;7372563;19;20968;-34
2023/09/06 09:10:07;;;;;;;21.60;10.70;;;;;;;22.78;100.00;102369.97;7385578;19;20456;-34
2023/09/06 09:12:40;;;;;;;10.93;4.37;;;;;;;22.92;100.00;102367.59;7394385;19;20425;-35
2023/09/06 09:15:11;;;;;;;14.43;6.60;;;;;;;23.03;100.00;102365.97;7371532;19;20412;-34
2023/09/06 09:17:43;;;;;;;51.67;28.10;;;;;;;23.10;100.00;102334.47;7392812;19;20375;-35
2023/09/06 09:20:28;;;;;;;30.37;15.70;;;;;;;23.24;100.00;102293.47;7373760;19;20745;-35
2023/09/06 09:23:01;;;;;;;41.90;22.37;;;;;;;23.37;100.00;102264.69;7392757;19;21027;-34
2023/09/06 09:25:31;;;;;;;18.67;10.20;;;;;;;23.68;100.00;102164.94;7373606;19;20425;-35
2023/09/06 09:28:04;;;;;;;36.23;17.63;;;;;;;23.75;100.00;102087.72;7392609;19;20483;-36
2023/09/06 09:30:34;;;;;;;19.73;9.53;;;;;;;23.96;100.00;101980.72;7372169;19;20416;-35
2023/09/06 09:33:05;;;;;;;32.37;15.17;;;;;;;24.19;100.00;101906.16;7395421;19;20419;-35
2023/09/06 09:35:35;;;;;;;30.13;16.93;;;;;;;24.25;100.00;101869.28;7371981;19;20507;-35
2023/09/06 09:38:06;;;;;;;11.70;5.50;;;;;;;24.28;100.00;101890.34;7392662;19;20407;-35
2023/09/06 09:40:36;;;;;;;18.93;9.77;;;;;;;24.33;100.00;101846.44;7366916;19;20451;-35
2023/09/06 09:43:23;;;;;;;23.30;12.10;;;;;;;24.43;100.00;101851.69;7393298;19;20439;-35
2023/09/06 09:45:53;;;;;;;10.63;6.40;;;;;;;24.47;100.00;101825.34;7370100;19;20443;-34
2023/09/06 09:48:29;;;;;;;40.67;21.37;;;;;;;24.57;100.00;101831.50;7393274;19;20419;-35
2023/09/06 09:51:00;;;;;;;14.13;6.53;;;;;;;24.78;100.00;101756.75;7370861;19;21006;-35
2023/09/06 09:53:34;;;;;;;41.40;21.27;;;;;;;24.87;100.00;101755.84;7394223;19;20486;-35
2023/09/06 09:56:09;;;;;;;19.70;10.93;;;;;;;24.93;100.00;101766.41;7370747;19;20513;-35
2023/09/06 09:58:42;;;;;;;22.10;11.97;;;;;;;24.98;100.00;101774.34;7391780;19;20451;-35
2023/09/06 10:01:12;;;;;;;42.07;21.30;;;;;;;24.99;100.00;101777.81;7369847;19;20418;-36
2023/09/06 10:03:42;;;;;;;28.77;15.77;;;;;;;25.07;100.00;101781.34;7392211;19;21305;-38
2023/09/06 10:06:13;;;;;;;38.60;21.90;;;;;;;25.17;100.00;101769.84;7369685;19;20438;-34
2023/09/06 10:08:43;;;;;;;29.53;17.33;;;;;;;25.21;100.00;101766.34;7392751;19;20475;-34
2023/09/06 10:11:16;;;;;;;23.67;11.97;;;;;;;25.32;100.00;101763.66;7370802;19;20433;-35
2023/09/06 10:13:49;;;;;;;31.47;17.90;;;;;;;25.52;100.00;101716.91;7391851;19;20408;-35
2023/09/06 10:16:19;;;;;;;19.77;12.07;;;;;;;25.61;100.00;101724.81;7369554;19;20975;-34
2023/09/06 10:18:48;;;;;;;14.23;5.40;;;;;;;25.73;100.00;101721.19;7390947;19;20443;-35
2023/09/06 10:21:19;;;;;;;21.13;11.40;;;;;;;25.79;100.00;101741.44;7368011;19;20423;-36
2023/09/06 10:23:50;;;;;;;33.30;17.93;;;;;;;25.85;100.00;101734.31;7392032;19;20407;-36
2023/09/06 10:26:27;;;;;;;21.27;10.03;;;;;;;25.98;100.00;101739.53;7370482;19;20518;-35
2023/09/06 10:29:03;;;;;;;20.33;10.60;;;;;;;26.09;100.00;101720.97;7394314;19;20474;-35
2023/09/06 10:31:37;;;;;;;21.23;11.30;;;;;;;26.13;100.00;101715.63;7370898;19;20950;-36
2023/09/06 10:34:08;;;;;;;41.57;19.90;;;;;;;26.17;100.00;101705.91;7392291;19;20410;-36
2023/09/06 10:36:51;;;;;;;28.30;14.80;;;;;;;26.28;100.00;101696.13;7369005;19;20422;-36
2023/09/06 10:39:22;;;;;;;13.20;6.80;;;;;;;26.46;100.00;101659.81;7392110;19;20470;-36
2023/09/06 10:42:31;;;;;;;36.37;16.20;;;;;;;26.48;100.00;101621.00;7369062;19;21145;-35
2023/09/06 10:45:10;;;;;;;8.13;3.53;;;;;;;26.46;100.00;101601.63;7393913;19;20443;-37
2023/09/06 10:47:41;;;;;;;8.07;3.30;;;;;;;26.59;100.00;101604.13;7369660;19;20526;-36
2023/09/06 10:50:21;;;;;;;11.13;5.27;;;;;;;26.58;100.00;101619.13;7368574;19;20431;-37
2023/09/06 10:52:55;;;;;;;10.37;5.57;;;;;;;26.67;100.00;101599.59;7398046;19;20757;-35
2023/09/06 10:55:25;;;;;;;12.23;5.40;;;;;;;26.87;100.00;101603.75;7375416;19;20467;-37
2023/09/06 10:58:08;;;;;;;17.20;6.40;;;;;;;26.84;100.00;101607.31;7399969;19;20771;-36
2023/09/06 11:00:42;;;;;;;18.03;8.17;;;;;;;26.95;100.00;101583.38;7375040;19;20422;-35
2023/09/06 11:03:13;;;;;;;14.60;7.30;;;;;;;26.93;100.00;101564.88;7400072;19;20820;-35
2023/09/06 11:05:44;;;;;;;12.83;7.37;;;;;;;27.00;100.00;101555.06;7373799;19;20442;-36
2023/09/06 11:08:24;;;;;;;10.80;4.10;;;;;;;26.89;100.00;101517.25;7400188;19;20479;-35
2023/09/06 11:10:57;;;;;;;10.60;5.80;;;;;;;26.91;100.00;101513.72;7374249;19;20518;-35
2023/09/06 11:13:30;;;;;;;12.17;4.57;;;;;;;26.98;100.00;101524.22;7401106;19;20410;-35
2023/09/06 11:16:03;;;;;;;8.80;3.87;;;;;;;27.15;100.00;101603.41;7376502;19;20490;-36
2023/09/06 11:18:34;;;;;;;7.03;2.87;;;;;;;27.31;100.00;101573.16;7397756;19;20446;-37
2023/09/06 11:21:04;;;;;;;7.43;2.97;;;;;;;27.20;100.00;101535.38;7375474;19;20421;-35
2023/09/06 11:23:45;;;;;;;10.20;3.40;;;;;;;27.19;100.00;101512.44;7399561;19;20423;-35
2023/09/06 11:26:15;;;;;;;8.53;4.90;;;;;;;27.28;100.00;101519.34;7376521;19;20419;-35